Time;durP1;ratioP1;P1;durP2;ratioP2;P2;SDS_P1;SDS_P2;PMS_P1;PMS_P2;Temp;Humidity;BMP_temperature;BMP_pressure;BME280_temperature;BME280_humidity;BME280_pressure;Samples;Min_cycle;Max_cycle;Signal;HPM_P1;HPM_P2
2023/02/15 00:01:10;;;;;;;57.42;22.65;;;;;;;;;;4966883;28;20285;-68
2023/02/15 00:03:35;;;;;;;51.63;20.60;;;;;;;;;;4957059;28;20407;-67
2023/02/15 00:06:01;;;;;;;57.20;22.83;;;;;;;;;;4973430;28;20026;-67
2023/02/15 00:08:26;;;;;;;56.97;22.30;;;;;;;;;;4977666;28;20023;-68
2023/02/15 00:10:53;;;;;;;53.35;20.00;;;;;;;;;;4973296;28;20094;-69
2023/02/15 00:13:18;;;;;;;52.63;20.33;;;;;;;;;;4971922;28;20062;-67
2023/02/15 00:15:43;;;;;;;54.20;20.33;;;;;;;;;;4975921;28;20076;-67
2023/02/15 00:18:08;;;;;;;53.00;22.02;;;;;;;;;;4971571;28;20755;-67
2023/02/15 00:20:34;;;;;;;54.08;21.70;;;;;;;;;;4975236;28;20033;-67
2023/02/15 00:22:59;;;;;;;56.28;21.38;;;;;;;;;;4974870;28;20085;-68
2023/02/15 00:25:24;;;;;;;52.40;20.42;;;;;;;;;;4970823;28;20071;-67
2023/02/15 00:27:50;;;;;;;57.00;20.65;;;;;;;;;;4951383;28;20023;-67
2023/02/15 00:30:15;;;;;;;58.17;23.60;;;;;;;;;;4980351;28;20023;-67
2023/02/15 00:32:40;;;;;;;55.25;21.70;;;;;;;;;;4978053;28;20484;-67
2023/02/15 00:35:06;;;;;;;51.27;19.87;;;;;;;;;;4973858;28;20026;-68
2023/02/15 00:37:31;;;;;;;54.03;22.13;;;;;;;;;;4978339;28;20700;-68
2023/02/15 00:39:57;;;;;;;53.42;23.60;;;;;;;;;;4973229;28;20023;-67
2023/02/15 00:42:22;;;;;;;57.78;21.27;;;;;;;;;;4966085;28;20048;-69
2023/02/15 00:44:47;;;;;;;55.47;22.30;;;;;;;;;;4979109;28;20638;-67
2023/02/15 00:47:13;;;;;;;59.70;23.08;;;;;;;;;;4977976;28;20270;-67
2023/02/15 00:49:38;;;;;;;57.83;22.85;;;;;;;;;;4976017;28;20030;-68
2023/02/15 00:52:03;;;;;;;60.37;22.40;;;;;;;;;;4973026;28;20027;-67
2023/02/15 00:54:28;;;;;;;61.53;23.13;;;;;;;;;;4982514;28;20357;-67
2023/02/15 00:56:53;;;;;;;54.63;22.47;;;;;;;;;;4970765;28;21345;-67
2023/02/15 00:59:19;;;;;;;57.43;24.77;;;;;;;;;;4981255;28;20266;-67
2023/02/15 01:01:44;;;;;;;55.03;21.77;;;;;;;;;;4971761;28;20651;-67
2023/02/15 01:04:09;;;;;;;59.87;22.60;;;;;;;;;;4980459;28;20294;-67
2023/02/15 01:06:34;;;;;;;61.55;21.45;;;;;;;;;;4976999;28;20265;-67
2023/02/15 01:08:59;;;;;;;53.95;20.75;;;;;;;;;;4979893;28;20502;-67
2023/02/15 01:11:25;;;;;;;55.10;20.92;;;;;;;;;;4976867;28;20046;-68
2023/02/15 01:13:54;;;;;;;49.65;21.65;;;;;;;;;;4981169;28;20026;-67
2023/02/15 01:16:20;;;;;;;57.35;22.25;;;;;;;;;;4978407;28;20154;-67
2023/02/15 01:18:45;;;;;;;65.40;24.55;;;;;;;;;;4980722;28;20106;-68
2023/02/15 01:21:13;;;;;;;56.22;23.20;;;;;;;;;;4978696;28;20031;-67
2023/02/15 01:23:38;;;;;;;56.83;24.13;;;;;;;;;;4962437;28;20035;-69
2023/02/15 01:26:04;;;;;;;60.50;22.98;;;;;;;;;;4976043;28;20062;-67
2023/02/15 01:28:29;;;;;;;64.65;24.75;;;;;;;;;;4983989;28;20030;-68
2023/02/15 01:30:54;;;;;;;54.13;21.08;;;;;;;;;;4981670;28;20113;-67
2023/02/15 01:33:19;;;;;;;58.53;22.37;;;;;;;;;;4984102;28;20019;-68
2023/02/15 01:35:45;;;;;;;49.83;20.85;;;;;;;;;;4981920;28;20310;-67
2023/02/15 01:38:11;;;;;;;57.67;23.30;;;;;;;;;;4981300;28;20027;-67
2023/02/15 01:40:36;;;;;;;53.83;22.42;;;;;;;;;;4983561;28;20029;-68
2023/02/15 01:43:01;;;;;;;57.53;23.40;;;;;;;;;;4980592;28;20031;-67
2023/02/15 01:45:28;;;;;;;51.13;21.40;;;;;;;;;;4985656;28;20288;-68
2023/02/15 01:48:14;;;;;;;63.00;23.52;;;;;;;;;;4981874;28;20266;-67
2023/02/15 01:50:47;;;;;;;61.17;22.58;;;;;;;;;;4977481;28;20030;-67
2023/02/15 01:53:19;;;;;;;58.05;22.30;;;;;;;;;;4978889;28;20023;-67
2023/02/15 01:55:59;;;;;;;54.80;22.95;;;;;;;;;;4978918;28;20137;-67
2023/02/15 01:58:25;;;;;;;61.03;21.05;;;;;;;;;;4981770;28;20018;-68
2023/02/15 02:00:51;;;;;;;58.47;22.60;;;;;;;;;;4975326;28;20031;-67
2023/02/15 02:03:16;;;;;;;59.17;22.67;;;;;;;;;;4982624;28;20031;-67
2023/02/15 02:05:42;;;;;;;56.13;21.98;;;;;;;;;;4973187;28;20034;-67
2023/02/15 02:08:09;;;;;;;45.67;17.10;;;;;;;;;;4982410;28;20026;-67
2023/02/15 02:10:34;;;;;;;54.67;21.90;;;;;;;;;;4976031;28;20395;-67
2023/02/15 02:13:02;;;;;;;59.85;21.55;;;;;;;;;;4981301;28;20029;-67
2023/02/15 02:15:46;;;;;;;55.85;22.85;;;;;;;;;;4981481;28;20044;-67
2023/02/15 02:18:22;;;;;;;63.67;23.05;;;;;;;;;;4980811;28;20023;-68
2023/02/15 02:20:47;;;;;;;62.30;24.00;;;;;;;;;;4977034;28;20380;-68
2023/02/15 02:23:19;;;;;;;66.28;23.75;;;;;;;;;;4980956;28;20023;-68
2023/02/15 02:26:04;;;;;;;52.05;19.65;;;;;;;;;;4976224;28;20270;-68
2023/02/15 02:28:41;;;;;;;56.38;21.15;;;;;;;;;;4976870;28;20507;-68
2023/02/15 02:31:24;;;;;;;53.50;22.23;;;;;;;;;;4977263;28;20085;-67
2023/02/15 02:34:12;;;;;;;58.55;22.85;;;;;;;;;;4981117;28;20110;-67
2023/02/15 02:36:56;;;;;;;63.15;24.50;;;;;;;;;;4979559;28;20114;-67
2023/02/15 02:39:35;;;;;;;67.10;23.17;;;;;;;;;;4979720;28;20030;-68
2023/02/15 02:42:05;;;;;;;60.72;22.52;;;;;;;;;;4981538;28;20029;-67
2023/02/15 02:44:55;;;;;;;68.10;24.67;;;;;;;;;;4975878;28;20022;-67
2023/02/15 02:47:21;;;;;;;57.50;22.55;;;;;;;;;;4982074;28;20019;-67
2023/02/15 02:49:46;;;;;;;63.83;22.98;;;;;;;;;;4957735;28;20110;-68
2023/02/15 02:52:30;;;;;;;51.83;21.17;;;;;;;;;;4982392;28;20023;-68
2023/02/15 02:54:56;;;;;;;51.13;21.15;;;;;;;;;;4977267;28;20273;-68
2023/02/15 02:57:22;;;;;;;53.58;20.55;;;;;;;;;;4980409;28;20029;-68
2023/02/15 02:59:48;;;;;;;55.70;21.63;;;;;;;;;;4980334;28;20097;-68
2023/02/15 03:02:15;;;;;;;62.85;23.50;;;;;;;;;;4977193;28;20110;-68
2023/02/15 03:04:44;;;;;;;51.95;23.42;;;;;;;;;;4979844;28;20046;-68
2023/02/15 03:07:11;;;;;;;49.03;20.73;;;;;;;;;;4981295;28;20102;-68
2023/02/15 03:09:44;;;;;;;59.92;22.98;;;;;;;;;;4982367;28;20383;-67
2023/02/15 03:12:11;;;;;;;58.28;20.85;;;;;;;;;;4971073;28;20452;-68
2023/02/15 03:14:36;;;;;;;54.58;20.05;;;;;;;;;;4973538;28;20447;-68
2023/02/15 03:17:02;;;;;;;62.20;23.13;;;;;;;;;;4973462;28;20031;-68
2023/02/15 03:19:30;;;;;;;58.35;21.40;;;;;;;;;;4978394;28;20027;-68
2023/02/15 03:21:57;;;;;;;64.28;22.35;;;;;;;;;;4975451;28;20053;-68
2023/02/15 03:24:24;;;;;;;60.85;22.10;;;;;;;;;;4983621;28;20019;-68
2023/02/15 03:26:51;;;;;;;56.70;22.02;;;;;;;;;;4972468;28;20027;-68
2023/02/15 03:29:17;;;;;;;62.72;21.30;;;;;;;;;;4981422;28;20069;-68
2023/02/15 03:31:45;;;;;;;61.75;19.95;;;;;;;;;;4970930;28;20583;-67
2023/02/15 03:34:12;;;;;;;63.28;23.55;;;;;;;;;;4967347;28;20125;-68
2023/02/15 03:36:46;;;;;;;64.88;23.25;;;;;;;;;;4975973;28;20098;-68
2023/02/15 03:39:19;;;;;;;65.25;22.77;;;;;;;;;;4978521;28;20018;-68
2023/02/15 03:41:48;;;;;;;56.72;20.42;;;;;;;;;;4978068;28;20097;-68
2023/02/15 03:44:16;;;;;;;68.28;24.70;;;;;;;;;;4981366;28;20073;-68
2023/02/15 03:46:42;;;;;;;61.13;24.98;;;;;;;;;;4969842;28;20125;-68
2023/02/15 03:49:09;;;;;;;53.08;21.70;;;;;;;;;;4975275;28;20623;-68
2023/02/15 03:51:37;;;;;;;60.22;21.98;;;;;;;;;;4980301;28;20313;-68
2023/02/15 03:54:02;;;;;;;50.58;17.55;;;;;;;;;;4979776;28;20030;-68
2023/02/15 03:56:28;;;;;;;59.92;22.65;;;;;;;;;;4979844;28;20030;-68
2023/02/15 04:04:28;;;;;;;66.70;23.63;;;;;;;;;;4981594;28;20562;-68
2023/02/15 04:06:53;;;;;;;61.45;23.88;;;;;;;;;;4976347;28;20027;-68
2023/02/15 04:12:02;;;;;;;65.50;25.73;;;;;;;;;;4977911;28;20046;-68
2023/02/15 04:17:11;;;;;;;64.28;22.63;;;;;;;;;;4976915;28;20030;-68
2023/02/15 04:25:13;;;;;;;56.53;18.98;;;;;;;;;;4976846;28;20105;-68
2023/02/15 04:27:42;;;;;;;56.80;21.35;;;;;;;;;;4974460;28;20019;-68
2023/02/15 04:30:08;;;;;;;57.67;22.37;;;;;;;;;;4976991;28;20030;-68
2023/02/15 04:32:34;;;;;;;72.90;23.70;;;;;;;;;;4979759;28;20270;-68
2023/02/15 04:34:59;;;;;;;56.80;21.67;;;;;;;;;;4980180;28;20022;-68
2023/02/15 04:37:24;;;;;;;54.10;20.33;;;;;;;;;;4979979;28;20101;-68
2023/02/15 04:39:49;;;;;;;58.43;23.00;;;;;;;;;;4981560;28;20026;-68
2023/02/15 04:42:15;;;;;;;63.38;23.30;;;;;;;;;;4973714;28;20285;-68
2023/02/15 04:44:40;;;;;;;61.70;22.90;;;;;;;;;;4984616;28;20180;-68
2023/02/15 04:47:05;;;;;;;63.70;24.52;;;;;;;;;;4978521;28;20101;-68
2023/02/15 04:49:30;;;;;;;62.50;22.40;;;;;;;;;;4984542;28;20118;-68
2023/02/15 04:51:55;;;;;;;68.30;25.05;;;;;;;;;;4983113;28;20041;-68
2023/02/15 04:54:20;;;;;;;55.70;20.88;;;;;;;;;;4983519;28;20011;-68
2023/02/15 04:56:46;;;;;;;57.75;21.02;;;;;;;;;;4981774;28;20030;-67
2023/02/15 04:59:11;;;;;;;58.97;22.23;;;;;;;;;;4981056;28;20465;-68
2023/02/15 05:01:36;;;;;;;66.57;22.85;;;;;;;;;;4983522;28;20089;-68
2023/02/15 05:04:02;;;;;;;63.88;20.35;;;;;;;;;;4982636;28;20424;-68
2023/02/15 05:06:27;;;;;;;59.80;22.67;;;;;;;;;;4981177;28;20021;-68
2023/02/15 05:08:52;;;;;;;63.47;22.23;;;;;;;;;;4983317;28;20038;-68
2023/02/15 05:11:17;;;;;;;61.25;21.67;;;;;;;;;;4978815;28;20054;-68
2023/02/15 05:13:43;;;;;;;58.47;21.40;;;;;;;;;;4978941;28;20022;-68
2023/02/15 05:16:08;;;;;;;65.23;23.53;;;;;;;;;;4979287;28;20519;-68
2023/02/15 05:18:33;;;;;;;68.88;22.45;;;;;;;;;;4982176;28;20282;-68
2023/02/15 05:20:58;;;;;;;61.42;24.25;;;;;;;;;;4978823;28;20460;-68
2023/02/15 05:23:23;;;;;;;62.85;23.13;;;;;;;;;;4984368;28;20038;-68
2023/02/15 05:28:34;;;;;;;65.95;24.42;;;;;;;;;;4973202;28;20550;-68
2023/02/15 05:31:02;;;;;;;59.10;21.67;;;;;;;;;;4978924;28;20045;-68
2023/02/15 05:33:27;;;;;;;59.63;21.13;;;;;;;;;;4985753;28;20057;-68
2023/02/15 05:35:52;;;;;;;72.40;22.40;;;;;;;;;;4979866;28;20046;-68
2023/02/15 05:38:18;;;;;;;65.82;21.92;;;;;;;;;;4984222;28;20018;-68
2023/02/15 05:40:43;;;;;;;63.85;21.75;;;;;;;;;;4980217;28;20141;-68
2023/02/15 05:43:08;;;;;;;28.02;10.65;;;;;;;;;;4977539;28;20032;-68
2023/02/15 05:45:33;;;;;;;56.47;20.08;;;;;;;;;;4980108;28;20037;-68
2023/02/15 05:47:58;;;;;;;65.05;22.30;;;;;;;;;;4982291;28;20506;-68
2023/02/15 05:50:24;;;;;;;58.17;20.42;;;;;;;;;;4975959;28;20030;-68
2023/02/15 05:52:49;;;;;;;44.92;15.00;;;;;;;;;;4983786;28;20026;-68
2023/02/15 05:55:14;;;;;;;54.53;17.60;;;;;;;;;;4979018;28;20173;-68
2023/02/15 05:57:40;;;;;;;15.25;8.00;;;;;;;;;;4979089;28;20686;-68
2023/02/15 06:00:05;;;;;;;57.27;20.33;;;;;;;;;;4982222;28;20077;-68
2023/02/15 06:02:34;;;;;;;62.08;24.13;;;;;;;;;;4983566;28;20273;-68
2023/02/15 06:04:59;;;;;;;56.83;21.60;;;;;;;;;;4976171;28;20388;-68
2023/02/15 06:07:24;;;;;;;53.60;18.67;;;;;;;;;;4985284;28;20026;-68
2023/02/15 06:09:50;;;;;;;52.37;14.97;;;;;;;;;;4976324;28;20050;-68
2023/02/15 06:12:15;;;;;;;44.63;15.88;;;;;;;;;;4977603;28;20767;-68
2023/02/15 06:14:40;;;;;;;62.00;22.02;;;;;;;;;;4975272;28;20625;-68
2023/02/15 06:17:06;;;;;;;48.65;17.98;;;;;;;;;;4978684;28;20125;-68
2023/02/15 06:19:31;;;;;;;53.55;17.02;;;;;;;;;;4984187;28;20049;-68
2023/02/15 06:21:56;;;;;;;55.58;21.33;;;;;;;;;;4971235;28;20109;-68
2023/02/15 06:24:21;;;;;;;33.42;11.88;;;;;;;;;;4979297;28;20038;-68
2023/02/15 06:26:46;;;;;;;59.70;22.60;;;;;;;;;;4972577;28;20049;-68
2023/02/15 06:29:12;;;;;;;61.83;22.23;;;;;;;;;;4980510;28;20467;-68
2023/02/15 06:31:37;;;;;;;57.85;21.48;;;;;;;;;;4979106;28;20018;-68
2023/02/15 06:34:02;;;;;;;63.65;22.13;;;;;;;;;;4979146;28;20046;-68
2023/02/15 06:36:28;;;;;;;48.83;18.40;;;;;;;;;;4972781;28;20027;-68
2023/02/15 06:38:54;;;;;;;61.13;20.65;;;;;;;;;;4967965;28;20030;-67
2023/02/15 06:41:19;;;;;;;59.22;22.02;;;;;;;;;;4981528;28;20027;-68
2023/02/15 06:43:44;;;;;;;58.95;20.95;;;;;;;;;;4974073;28;20018;-67
2023/02/15 06:46:09;;;;;;;53.95;19.02;;;;;;;;;;4970639;28;20029;-68
2023/02/15 06:48:35;;;;;;;50.53;19.13;;;;;;;;;;4977250;28;20065;-68
2023/02/15 06:51:00;;;;;;;54.75;21.85;;;;;;;;;;4972650;28;20507;-68
2023/02/15 06:53:25;;;;;;;57.88;21.90;;;;;;;;;;4974634;28;20108;-68
2023/02/15 06:55:50;;;;;;;65.70;22.23;;;;;;;;;;4971689;28;20539;-68
2023/02/15 06:58:15;;;;;;;55.40;18.77;;;;;;;;;;4970466;28;20014;-67
2023/02/15 07:00:40;;;;;;;49.60;20.55;;;;;;;;;;4976738;28;20443;-68
2023/02/15 07:03:06;;;;;;;57.95;20.35;;;;;;;;;;4975148;28;20023;-68
2023/02/15 07:05:33;;;;;;;50.53;20.08;;;;;;;;;;4980895;28;20112;-68
2023/02/15 07:07:58;;;;;;;54.83;18.70;;;;;;;;;;4979633;28;20030;-68
2023/02/15 07:10:24;;;;;;;52.95;20.38;;;;;;;;;;4984714;28;20057;-68
2023/02/15 07:12:49;;;;;;;51.45;19.35;;;;;;;;;;4983451;28;20149;-68
2023/02/15 07:15:15;;;;;;;44.28;17.42;;;;;;;;;;4982902;28;20527;-68
2023/02/15 07:17:41;;;;;;;53.15;18.10;;;;;;;;;;4980371;28;20030;-68
2023/02/15 07:20:08;;;;;;;34.58;15.52;;;;;;;;;;4980108;28;20119;-68
2023/02/15 07:22:35;;;;;;;53.80;19.25;;;;;;;;;;4962580;28;20373;-68
2023/02/15 07:25:01;;;;;;;53.13;20.50;;;;;;;;;;4977932;28;20480;-68
2023/02/15 07:27:26;;;;;;;61.97;22.88;;;;;;;;;;4969676;28;20031;-68
2023/02/15 07:29:51;;;;;;;59.53;21.70;;;;;;;;;;4980071;28;20050;-68
2023/02/15 07:32:16;;;;;;;44.08;19.35;;;;;;;;;;4973212;28;20065;-68
2023/02/15 07:34:41;;;;;;;23.97;8.60;;;;;;;;;;4983547;28;20548;-68
2023/02/15 07:37:06;;;;;;;42.17;16.45;;;;;;;;;;4981099;28;20246;-68
2023/02/15 07:39:32;;;;;;;44.03;18.77;;;;;;;;;;4974267;28;20034;-68
2023/02/15 07:41:57;;;;;;;39.10;14.83;;;;;;;;;;4974939;28;20795;-68
2023/02/15 07:44:22;;;;;;;37.50;15.35;;;;;;;;;;4977744;28;20286;-68
2023/02/15 07:46:47;;;;;;;45.45;18.90;;;;;;;;;;4979181;28;20085;-68
2023/02/15 07:49:12;;;;;;;39.58;18.20;;;;;;;;;;4980907;28;20150;-68
2023/02/15 07:51:38;;;;;;;41.22;17.92;;;;;;;;;;4979502;28;20033;-68
2023/02/15 07:54:03;;;;;;;39.60;17.67;;;;;;;;;;4980580;28;20018;-68
2023/02/15 07:56:28;;;;;;;42.60;16.57;;;;;;;;;;4977525;28;20038;-68
2023/02/15 07:58:57;;;;;;;39.67;16.93;;;;;;;;;;4972466;28;20298;-68
2023/02/15 08:01:41;;;;;;;38.87;15.47;;;;;;;;;;4975912;28;20309;-68
2023/02/15 08:04:07;;;;;;;28.73;11.80;;;;;;;;;;4980790;28;20015;-68
2023/02/15 08:06:33;;;;;;;39.80;17.13;;;;;;;;;;4983998;28;20023;-68
2023/02/15 08:09:00;;;;;;;39.53;15.93;;;;;;;;;;4981365;28;20031;-68
2023/02/15 08:11:33;;;;;;;37.67;16.67;;;;;;;;;;4983877;28;20031;-68
2023/02/15 08:14:06;;;;;;;32.20;14.98;;;;;;;;;;4974702;28;20110;-68
2023/02/15 08:16:33;;;;;;;37.63;16.65;;;;;;;;;;4975264;28;20018;-68
2023/02/15 08:18:59;;;;;;;24.42;10.65;;;;;;;;;;4980896;28;20022;-68
2023/02/15 08:21:25;;;;;;;29.13;13.07;;;;;;;;;;4976136;28;20118;-68
2023/02/15 08:23:52;;;;;;;33.45;14.85;;;;;;;;;;4977484;28;20444;-68
2023/02/15 08:26:18;;;;;;;28.02;11.70;;;;;;;;;;4980533;28;20019;-68
2023/02/15 08:28:44;;;;;;;32.30;12.70;;;;;;;;;;4980731;28;20029;-68
2023/02/15 08:31:10;;;;;;;30.10;13.93;;;;;;;;;;4958568;28;20062;-68
2023/02/15 08:33:37;;;;;;;24.42;12.40;;;;;;;;;;4980586;28;20126;-68
2023/02/15 08:36:06;;;;;;;20.55;8.18;;;;;;;;;;4979856;28;20082;-68
2023/02/15 08:38:32;;;;;;;30.00;12.30;;;;;;;;;;4975102;28;20026;-68
2023/02/15 08:40:57;;;;;;;20.77;6.88;;;;;;;;;;4979701;28;20114;-68
2023/02/15 08:43:22;;;;;;;26.38;11.38;;;;;;;;;;4975671;28;20097;-68
2023/02/15 08:45:48;;;;;;;12.15;5.40;;;;;;;;;;4979424;28;20029;-68
2023/02/15 08:48:13;;;;;;;27.95;13.35;;;;;;;;;;4982094;28;20015;-68
2023/02/15 08:50:38;;;;;;;19.70;9.63;;;;;;;;;;4980509;28;20022;-68
2023/02/15 08:53:03;;;;;;;24.45;10.80;;;;;;;;;;4980198;28;20255;-68
2023/02/15 08:55:29;;;;;;;26.87;13.37;;;;;;;;;;4976154;28;20047;-69
2023/02/15 08:57:55;;;;;;;16.80;7.90;;;;;;;;;;4967043;28;20278;-69
2023/02/15 09:00:22;;;;;;;19.80;8.70;;;;;;;;;;4977357;28;20094;-69
2023/02/15 09:02:47;;;;;;;18.10;7.22;;;;;;;;;;4975612;28;20495;-68
2023/02/15 09:05:12;;;;;;;20.53;7.97;;;;;;;;;;4975037;28;20034;-69
2023/02/15 09:07:37;;;;;;;24.58;12.20;;;;;;;;;;4980566;28;20269;-68
2023/02/15 09:10:03;;;;;;;21.77;10.30;;;;;;;;;;4980077;28;20019;-68
2023/02/15 09:12:28;;;;;;;22.80;9.95;;;;;;;;;;4980079;28;21032;-69
2023/02/15 09:14:53;;;;;;;19.02;7.60;;;;;;;;;;4980984;28;20027;-68
2023/02/15 09:17:18;;;;;;;22.87;9.37;;;;;;;;;;4980212;28;20022;-69
2023/02/15 09:19:43;;;;;;;22.30;8.33;;;;;;;;;;4978388;28;20612;-68
2023/02/15 09:22:08;;;;;;;23.70;12.13;;;;;;;;;;4979266;28;20379;-69
2023/02/15 09:24:34;;;;;;;22.17;10.40;;;;;;;;;;4980236;28;20596;-68
2023/02/15 09:26:59;;;;;;;24.00;12.13;;;;;;;;;;4977713;28;20034;-68
2023/02/15 09:29:24;;;;;;;25.13;10.73;;;;;;;;;;4981806;28;20373;-69
2023/02/15 09:31:50;;;;;;;15.00;7.57;;;;;;;;;;4979919;28;20286;-68
2023/02/15 09:34:17;;;;;;;15.98;7.00;;;;;;;;;;4983087;28;20348;-68
2023/02/15 09:36:42;;;;;;;21.70;9.45;;;;;;;;;;4983363;28;20267;-68
2023/02/15 09:39:09;;;;;;;22.67;11.43;;;;;;;;;;4983224;28;20483;-68
2023/02/15 09:41:46;;;;;;;25.33;11.93;;;;;;;;;;4983659;28;20411;-68
2023/02/15 09:44:21;;;;;;;22.80;8.02;;;;;;;;;;4981255;28;20022;-68
2023/02/15 09:46:49;;;;;;;17.17;7.57;;;;;;;;;;4970609;28;20361;-68
2023/02/15 09:49:17;;;;;;;20.20;6.47;;;;;;;;;;4979400;28;20098;-68
2023/02/15 09:51:53;;;;;;;15.57;8.10;;;;;;;;;;4982820;28;20026;-68
2023/02/15 09:54:25;;;;;;;16.55;8.07;;;;;;;;;;4984337;28;20157;-68
2023/02/15 09:57:14;;;;;;;27.10;8.48;;;;;;;;;;4984372;28;20049;-68
2023/02/15 09:59:45;;;;;;;18.17;9.75;;;;;;;;;;4971804;28;20483;-68
2023/02/15 10:02:28;;;;;;;21.50;9.65;;;;;;;;;;4975948;28;20050;-68
2023/02/15 10:04:53;;;;;;;21.33;7.85;;;;;;;;;;4962538;28;20054;-68
2023/02/15 10:07:35;;;;;;;15.47;7.30;;;;;;;;;;4984765;28;20057;-68
2023/02/15 10:10:04;;;;;;;16.38;7.35;;;;;;;;;;4983147;28;20261;-68
2023/02/15 10:12:39;;;;;;;18.30;8.40;;;;;;;;;;4971996;28;20022;-68
2023/02/15 10:15:19;;;;;;;13.60;6.35;;;;;;;;;;4982721;28;20114;-68
2023/02/15 10:17:47;;;;;;;15.68;7.75;;;;;;;;;;4982187;28;20026;-68
2023/02/15 10:20:32;;;;;;;27.00;11.02;;;;;;;;;;4983858;28;20026;-68
2023/02/15 10:22:57;;;;;;;19.77;7.75;;;;;;;;;;4983524;28;20030;-68
2023/02/15 10:25:29;;;;;;;20.02;8.95;;;;;;;;;;4981687;28;20460;-68
2023/02/15 10:27:58;;;;;;;12.65;5.80;;;;;;;;;;4982133;28;20026;-68
2023/02/15 10:30:31;;;;;;;15.82;5.90;;;;;;;;;;4982141;28;20027;-68
2023/02/15 10:32:59;;;;;;;17.48;7.50;;;;;;;;;;4978324;28;20026;-68
2023/02/15 10:35:34;;;;;;;18.10;7.70;;;;;;;;;;4982148;28;20495;-68
2023/02/15 10:38:20;;;;;;;14.38;6.43;;;;;;;;;;4982401;28;20018;-68
2023/02/15 10:41:03;;;;;;;16.83;6.13;;;;;;;;;;4979712;28;20041;-68
2023/02/15 10:43:45;;;;;;;20.90;9.38;;;;;;;;;;4986043;28;20105;-68
2023/02/15 10:46:21;;;;;;;20.00;8.50;;;;;;;;;;4979626;28;20018;-68
2023/02/15 10:48:51;;;;;;;19.08;7.63;;;;;;;;;;4982679;28;20369;-68
2023/02/15 10:51:24;;;;;;;21.35;9.13;;;;;;;;;;4983646;28;20487;-68
2023/02/15 10:54:05;;;;;;;21.63;10.80;;;;;;;;;;4983883;28;20022;-68
2023/02/15 10:56:38;;;;;;;14.45;8.30;;;;;;;;;;4976159;28;20026;-68
2023/02/15 10:59:15;;;;;;;13.63;6.88;;;;;;;;;;4979677;28;20019;-68
2023/02/15 11:01:41;;;;;;;18.17;8.18;;;;;;;;;;4969378;28;20116;-68
2023/02/15 11:04:12;;;;;;;14.25;6.93;;;;;;;;;;4975536;28;20081;-68
2023/02/15 11:06:40;;;;;;;11.32;5.68;;;;;;;;;;4980534;28;20052;-68
2023/02/15 11:09:09;;;;;;;18.85;8.05;;;;;;;;;;4964893;28;20056;-68
2023/02/15 11:11:40;;;;;;;14.07;6.65;;;;;;;;;;4977948;28;20026;-68
2023/02/15 11:14:05;;;;;;;;;;;;;;;;;;4978949;28;20019;-68
2023/02/15 11:16:38;;;;;;;18.58;7.63;;;;;;;;;;4982875;28;19914;-68
2023/02/15 11:19:06;;;;;;;21.50;9.70;;;;;;;;;;4980883;28;20023;-68
2023/02/15 11:21:38;;;;;;;15.85;8.38;;;;;;;;;;4976018;28;20031;-68
2023/02/15 11:24:11;;;;;;;23.25;9.13;;;;;;;;;;4973671;28;20500;-68
2023/02/15 11:26:45;;;;;;;17.75;8.43;;;;;;;;;;4975684;28;20026;-68
2023/02/15 11:29:11;;;;;;;13.32;6.65;;;;;;;;;;4975247;28;20022;-69
2023/02/15 11:31:42;;;;;;;18.93;8.57;;;;;;;;;;4979031;28;20403;-68
2023/02/15 11:34:14;;;;;;;24.38;11.00;;;;;;;;;;4977751;28;20258;-68
2023/02/15 11:36:40;;;;;;;20.85;9.77;;;;;;;;;;4979655;28;20018;-68
2023/02/15 11:39:10;;;;;;;20.38;10.35;;;;;;;;;;4978095;28;20038;-68
2023/02/15 11:41:40;;;;;;;15.13;7.10;;;;;;;;;;4981128;28;20018;-68
2023/02/15 11:44:08;;;;;;;25.27;8.82;;;;;;;;;;4977979;28;20046;-68
2023/02/15 11:46:33;;;;;;;17.33;8.85;;;;;;;;;;4977350;28;20018;-68
2023/02/15 11:48:58;;;;;;;18.85;9.65;;;;;;;;;;4976701;28;20030;-69
2023/02/15 11:51:25;;;;;;;8.35;3.70;;;;;;;;;;4977409;28;20032;-69
2023/02/15 11:53:51;;;;;;;18.15;8.90;;;;;;;;;;4979134;28;20089;-68
2023/02/15 11:56:17;;;;;;;14.20;5.82;;;;;;;;;;4976200;28;20499;-68
2023/02/15 11:58:49;;;;;;;23.92;8.25;;;;;;;;;;4983446;28;20033;-68
2023/02/15 12:01:23;;;;;;;17.23;6.60;;;;;;;;;;4977033;28;20058;-68
2023/02/15 12:03:50;;;;;;;17.73;7.38;;;;;;;;;;4975295;28;20033;-68
2023/02/15 12:06:26;;;;;;;16.80;7.80;;;;;;;;;;4976867;28;20105;-69
2023/02/15 12:08:57;;;;;;;21.67;9.00;;;;;;;;;;4971613;28;20033;-68
2023/02/15 12:11:34;;;;;;;21.17;9.80;;;;;;;;;;4977238;28;20657;-68
2023/02/15 12:14:01;;;;;;;21.13;10.57;;;;;;;;;;4975797;28;20023;-68
2023/02/15 12:16:27;;;;;;;21.48;9.90;;;;;;;;;;4976842;28;20430;-68
2023/02/15 12:18:54;;;;;;;24.73;11.13;;;;;;;;;;4981439;28;20483;-68
2023/02/15 12:21:30;;;;;;;22.52;10.60;;;;;;;;;;4982218;28;20503;-68
2023/02/15 12:23:57;;;;;;;13.32;5.32;;;;;;;;;;4980394;28;20042;-69
2023/02/15 12:26:30;;;;;;;22.80;8.88;;;;;;;;;;4978070;28;20081;-68
2023/02/15 12:28:59;;;;;;;21.38;9.57;;;;;;;;;;4981105;28;20029;-68
2023/02/15 12:31:26;;;;;;;19.88;9.82;;;;;;;;;;4979677;28;20058;-68
2023/02/15 12:33:53;;;;;;;14.23;6.90;;;;;;;;;;4975700;28;20036;-69
2023/02/15 12:36:19;;;;;;;22.65;9.73;;;;;;;;;;4982094;28;20101;-69
2023/02/15 12:39:05;;;;;;;23.92;10.02;;;;;;;;;;4979979;28;20537;-69
2023/02/15 12:41:31;;;;;;;21.33;9.63;;;;;;;;;;4957439;28;20387;-69
2023/02/15 12:44:03;;;;;;;20.38;9.60;;;;;;;;;;4977471;28;20047;-69
2023/02/15 12:46:28;;;;;;;21.13;10.85;;;;;;;;;;4972436;28;20076;-69
2023/02/15 12:49:06;;;;;;;14.27;6.60;;;;;;;;;;4971436;28;20031;-69
2023/02/15 12:51:41;;;;;;;16.92;8.45;;;;;;;;;;4978339;28;20257;-69
2023/02/15 12:54:15;;;;;;;19.15;9.38;;;;;;;;;;4969984;28;20054;-69
2023/02/15 12:56:41;;;;;;;19.20;6.85;;;;;;;;;;4957795;28;20059;-69
2023/02/15 12:59:06;;;;;;;24.27;10.13;;;;;;;;;;4970824;28;20502;-69
2023/02/15 13:01:31;;;;;;;17.37;7.50;;;;;;;;;;4973375;28;20292;-69
2023/02/15 13:03:57;;;;;;;14.02;5.90;;;;;;;;;;4975820;28;20281;-69
2023/02/15 13:06:22;;;;;;;23.08;10.20;;;;;;;;;;4978329;28;20129;-69
2023/02/15 13:08:49;;;;;;;22.70;9.77;;;;;;;;;;4978474;28;20633;-69
2023/02/15 13:11:19;;;;;;;23.95;9.77;;;;;;;;;;4960614;28;20027;-69
2023/02/15 13:13:51;;;;;;;21.05;8.80;;;;;;;;;;4972758;28;20019;-70
2023/02/15 13:16:19;;;;;;;20.38;10.35;;;;;;;;;;4980128;28;20526;-70
2023/02/15 13:18:45;;;;;;;22.13;10.77;;;;;;;;;;4979667;28;20038;-69
2023/02/15 13:21:15;;;;;;;27.35;11.30;;;;;;;;;;4979633;28;20023;-70
2023/02/15 13:23:48;;;;;;;14.82;6.45;;;;;;;;;;4981538;28;20068;-69
2023/02/15 13:26:26;;;;;;;12.18;5.68;;;;;;;;;;4980078;28;20023;-70
2023/02/15 13:28:55;;;;;;;16.02;5.68;;;;;;;;;;4977215;28;20049;-69
2023/02/15 13:31:23;;;;;;;21.88;10.32;;;;;;;;;;4981090;28;20047;-69
2023/02/15 13:33:54;;;;;;;12.93;6.22;;;;;;;;;;4973314;28;20041;-69
2023/02/15 13:36:27;;;;;;;19.05;9.20;;;;;;;;;;4984735;28;20027;-69
2023/02/15 13:38:56;;;;;;;17.15;7.60;;;;;;;;;;4984280;28;20037;-69
2023/02/15 13:41:26;;;;;;;19.33;8.13;;;;;;;;;;4975659;28;20022;-69
2023/02/15 13:43:51;;;;;;;;;;;;;;;;;;4976608;28;20381;-69
2023/02/15 13:46:34;;;;;;;19.73;7.35;;;;;;;;;;4984499;28;19913;-69
2023/02/15 13:49:05;;;;;;;16.55;6.32;;;;;;;;;;4977380;28;20027;-69
2023/02/15 13:51:33;;;;;;;16.60;7.03;;;;;;;;;;4975356;28;20018;-68
2023/02/15 13:54:17;;;;;;;25.00;9.23;;;;;;;;;;4982210;28;20033;-68
2023/02/15 13:56:44;;;;;;;20.33;8.48;;;;;;;;;;4973554;28;20030;-68
2023/02/15 13:59:15;;;;;;;22.27;9.93;;;;;;;;;;4983013;28;20075;-68
2023/02/15 14:01:40;;;;;;;25.27;7.45;;;;;;;;;;4976146;28;20027;-68
2023/02/15 14:04:14;;;;;;;21.33;8.57;;;;;;;;;;4975101;28;20018;-68
2023/02/15 14:06:47;;;;;;;22.38;10.35;;;;;;;;;;4982835;28;20917;-68
2023/02/15 14:09:21;;;;;;;20.40;8.45;;;;;;;;;;4983766;28;20492;-69
2023/02/15 14:11:56;;;;;;;24.45;9.52;;;;;;;;;;4977468;28;20046;-69
2023/02/15 14:14:30;;;;;;;22.73;9.18;;;;;;;;;;4972403;28;20118;-69
2023/02/15 14:17:13;;;;;;;26.08;9.95;;;;;;;;;;4974055;28;20106;-69
2023/02/15 14:19:52;;;;;;;21.55;10.90;;;;;;;;;;4978350;28;20030;-69
2023/02/15 14:22:17;;;;;;;12.05;4.55;;;;;;;;;;4966672;28;20027;-69
2023/02/15 14:24:51;;;;;;;15.43;6.93;;;;;;;;;;4983138;28;20025;-68
2023/02/15 14:27:34;;;;;;;23.15;8.57;;;;;;;;;;4972959;28;20274;-69
2023/02/15 14:30:01;;;;;;;21.60;9.85;;;;;;;;;;4984087;28;20046;-69
2023/02/15 14:32:32;;;;;;;25.60;8.55;;;;;;;;;;4975777;28;20105;-69
2023/02/15 14:34:59;;;;;;;28.38;11.05;;;;;;;;;;4980617;28;20113;-69
2023/02/15 14:37:29;;;;;;;23.67;9.68;;;;;;;;;;4984604;28;20030;-69
2023/02/15 14:42:45;;;;;;;47.05;20.20;;;;;;;;;;4978831;28;20081;-69
2023/02/15 14:45:17;;;;;;;22.25;9.30;;;;;;;;;;4980046;28;20025;-69
2023/02/15 14:47:55;;;;;;;35.08;14.27;;;;;;;;;;4973968;28;20109;-69
2023/02/15 14:50:29;;;;;;;18.35;8.57;;;;;;;;;;4979863;28;20085;-69